sensor_id;sensor_type;location;lat;lon;timestamp;temperature;humidity
19232;DHT22;9750;48.730;10.294;2023-05-15T02:34:18;11.60;99.90
19232;DHT22;9750;48.730;10.294;2023-05-15T02:37:20;11.60;99.90
19232;DHT22;9750;48.730;10.294;2023-05-15T02:40:21;11.60;99.90
19232;DHT22;9750;48.730;10.294;2023-05-15T02:46:39;11.50;99.90
19232;DHT22;9750;48.730;10.294;2023-05-15T04:19:19;11.60;99.90
19232;DHT22;9750;48.730;10.294;2023-05-15T04:21:46;11.60;99.90
19232;DHT22;9750;48.730;10.294;2023-05-15T04:24:13;11.60;99.90
19232;DHT22;9750;48.730;10.294;2023-05-15T04:26:40;11.50;99.90
19232;DHT22;9750;48.730;10.294;2023-05-15T04:29:08;11.50;99.90
19232;DHT22;9750;48.730;10.294;2023-05-15T04:31:37;11.50;99.90
19232;DHT22;9750;48.730;10.294;2023-05-15T04:34:05;11.40;99.90
19232;DHT22;9750;48.730;10.294;2023-05-15T04:36:35;11.40;99.90
19232;DHT22;9750;48.730;10.294;2023-05-15T04:39:02;11.30;99.90
19232;DHT22;9750;48.730;10.294;2023-05-15T04:41:30;11.30;99.90
19232;DHT22;9750;48.730;10.294;2023-05-15T04:43:58;11.30;99.90
19232;DHT22;9750;48.730;10.294;2023-05-15T04:46:25;11.30;99.90
19232;DHT22;9750;48.730;10.294;2023-05-15T04:48:53;11.30;99.90
19232;DHT22;9750;48.730;10.294;2023-05-15T04:51:21;11.30;99.90
19232;DHT22;9750;48.730;10.294;2023-05-15T04:53:49;11.30;99.90
19232;DHT22;9750;48.730;10.294;2023-05-15T04:56:17;11.30;99.90
19232;DHT22;9750;48.730;10.294;2023-05-15T04:58:44;11.40;99.90
19232;DHT22;9750;48.730;10.294;2023-05-15T05:01:11;11.40;99.90
19232;DHT22;9750;48.730;10.294;2023-05-15T05:03:38;11.40;99.90
19232;DHT22;9750;48.730;10.294;2023-05-15T05:06:06;11.50;99.90
19232;DHT22;9750;48.730;10.294;2023-05-15T05:08:33;11.50;99.90
19232;DHT22;9750;48.730;10.294;2023-05-15T05:11:02;11.50;99.90
19232;DHT22;9750;48.730;10.294;2023-05-15T05:13:29;11.50;99.90
19232;DHT22;9750;48.730;10.294;2023-05-15T05:15:57;11.50;99.90
19232;DHT22;9750;48.730;10.294;2023-05-15T05:18:24;11.50;99.90
19232;DHT22;9750;48.730;10.294;2023-05-15T05:20:58;11.50;99.90
19232;DHT22;9750;48.730;10.294;2023-05-15T05:23:26;11.50;99.90
19232;DHT22;9750;48.730;10.294;2023-05-15T05:25:53;11.50;99.90
19232;DHT22;9750;48.730;10.294;2023-05-15T05:28:32;11.50;99.90
19232;DHT22;9750;48.730;10.294;2023-05-15T05:31:00;11.50;99.90
19232;DHT22;9750;48.730;10.294;2023-05-15T05:33:27;11.60;99.90
19232;DHT22;9750;48.730;10.294;2023-05-15T05:35:55;11.60;99.90
19232;DHT22;9750;48.730;10.294;2023-05-15T05:38:22;11.60;99.90
19232;DHT22;9750;48.730;10.294;2023-05-15T05:40:51;11.60;99.90
19232;DHT22;9750;48.730;10.294;2023-05-15T05:43:18;11.60;99.90
19232;DHT22;9750;48.730;10.294;2023-05-15T05:45:47;11.70;99.90
19232;DHT22;9750;48.730;10.294;2023-05-15T05:48:14;11.60;99.90
19232;DHT22;9750;48.730;10.294;2023-05-15T05:50:42;11.60;99.90
19232;DHT22;9750;48.730;10.294;2023-05-15T05:53:09;11.70;99.90
19232;DHT22;9750;48.730;10.294;2023-05-15T05:55:36;11.70;99.90
19232;DHT22;9750;48.730;10.294;2023-05-15T05:58:04;11.70;99.90
19232;DHT22;9750;48.730;10.294;2023-05-15T06:00:31;11.70;99.90
19232;DHT22;9750;48.730;10.294;2023-05-15T06:03:00;11.70;99.90
19232;DHT22;9750;48.730;10.294;2023-05-15T06:05:28;11.70;99.90
19232;DHT22;9750;48.730;10.294;2023-05-15T06:07:55;11.70;99.90
19232;DHT22;9750;48.730;10.294;2023-05-15T06:10:22;11.70;99.90
19232;DHT22;9750;48.730;10.294;2023-05-15T06:12:49;11.70;99.90
19232;DHT22;9750;48.730;10.294;2023-05-15T06:15:17;11.70;99.90
19232;DHT22;9750;48.730;10.294;2023-05-15T06:17:44;11.70;99.90
19232;DHT22;9750;48.730;10.294;2023-05-15T06:20:13;11.80;99.90
19232;DHT22;9750;48.730;10.294;2023-05-15T06:22:41;11.80;99.90
19232;DHT22;9750;48.730;10.294;2023-05-15T06:25:08;11.90;99.90
19232;DHT22;9750;48.730;10.294;2023-05-15T06:27:39;12.00;99.90
19232;DHT22;9750;48.730;10.294;2023-05-15T06:30:07;12.00;99.90
19232;DHT22;9750;48.730;10.294;2023-05-15T06:32:35;12.10;99.90
19232;DHT22;9750;48.730;10.294;2023-05-15T06:35:02;12.10;99.90
19232;DHT22;9750;48.730;10.294;2023-05-15T06:37:32;12.20;99.90
19232;DHT22;9750;48.730;10.294;2023-05-15T06:39:59;12.30;99.90
19232;DHT22;9750;48.730;10.294;2023-05-15T06:42:26;12.40;99.90
19232;DHT22;9750;48.730;10.294;2023-05-15T06:44:54;12.40;99.90
19232;DHT22;9750;48.730;10.294;2023-05-15T06:47:21;12.50;99.90
19232;DHT22;9750;48.730;10.294;2023-05-15T06:49:48;12.50;99.90
19232;DHT22;9750;48.730;10.294;2023-05-15T06:52:15;12.60;99.90
19232;DHT22;9750;48.730;10.294;2023-05-15T06:54:44;12.60;99.90
19232;DHT22;9750;48.730;10.294;2023-05-15T06:57:11;12.70;99.90
19232;DHT22;9750;48.730;10.294;2023-05-15T06:59:39;12.70;99.90
19232;DHT22;9750;48.730;10.294;2023-05-15T07:02:06;12.80;99.90
19232;DHT22;9750;48.730;10.294;2023-05-15T07:04:33;12.90;99.90
19232;DHT22;9750;48.730;10.294;2023-05-15T07:07:00;13.00;99.90
19232;DHT22;9750;48.730;10.294;2023-05-15T07:09:28;13.10;99.90
19232;DHT22;9750;48.730;10.294;2023-05-15T07:11:57;13.20;99.90
19232;DHT22;9750;48.730;10.294;2023-05-15T07:14:24;13.20;99.90
19232;DHT22;9750;48.730;10.294;2023-05-15T07:16:51;13.10;99.90
19232;DHT22;9750;48.730;10.294;2023-05-15T07:19:18;13.20;99.90
19232;DHT22;9750;48.730;10.294;2023-05-15T07:21:46;13.10;99.90
19232;DHT22;9750;48.730;10.294;2023-05-15T07:24:13;13.10;99.90
19232;DHT22;9750;48.730;10.294;2023-05-15T07:26:40;13.10;99.90
19232;DHT22;9750;48.730;10.294;2023-05-15T07:29:09;13.20;99.90
19232;DHT22;9750;48.730;10.294;2023-05-15T07:31:36;13.30;99.20
19232;DHT22;9750;48.730;10.294;2023-05-15T07:34:05;13.40;99.80
19232;DHT22;9750;48.730;10.294;2023-05-15T07:36:32;13.50;99.90
19232;DHT22;9750;48.730;10.294;2023-05-15T07:38:59;13.70;99.90
19232;DHT22;9750;48.730;10.294;2023-05-15T07:41:26;13.80;99.80
19232;DHT22;9750;48.730;10.294;2023-05-15T07:44:07;13.90;98.30
19232;DHT22;9750;48.730;10.294;2023-05-15T07:46:37;14.10;98.10
19232;DHT22;9750;48.730;10.294;2023-05-15T07:49:04;14.20;97.20
19232;DHT22;9750;48.730;10.294;2023-05-15T07:51:32;14.20;97.50
19232;DHT22;9750;48.730;10.294;2023-05-15T07:53:59;14.20;96.80
19232;DHT22;9750;48.730;10.294;2023-05-15T07:56:28;14.20;98.00
19232;DHT22;9750;48.730;10.294;2023-05-15T07:58:55;14.10;97.60
19232;DHT22;9750;48.730;10.294;2023-05-15T08:01:22;14.10;97.50
19232;DHT22;9750;48.730;10.294;2023-05-15T08:03:51;14.00;96.90
19232;DHT22;9750;48.730;10.294;2023-05-15T08:06:18;14.00;96.90
19232;DHT22;9750;48.730;10.294;2023-05-15T08:08:45;14.00;96.60
19232;DHT22;9750;48.730;10.294;2023-05-15T08:11:13;13.90;96.40
19232;DHT22;9750;48.730;10.294;2023-05-15T08:13:40;13.90;96.80
19232;DHT22;9750;48.730;10.294;2023-05-15T08:16:08;13.90;97.00
19232;DHT22;9750;48.730;10.294;2023-05-15T08:18:36;14.00;96.20
19232;DHT22;9750;48.730;10.294;2023-05-15T08:21:05;14.00;96.50
19232;DHT22;9750;48.730;10.294;2023-05-15T08:23:32;14.00;96.40
19232;DHT22;9750;48.730;10.294;2023-05-15T08:25:59;14.10;96.60
19232;DHT22;9750;48.730;10.294;2023-05-15T08:28:26;14.10;97.10
19232;DHT22;9750;48.730;10.294;2023-05-15T08:30:54;14.20;97.20
19232;DHT22;9750;48.730;10.294;2023-05-15T08:33:21;14.20;96.20
19232;DHT22;9750;48.730;10.294;2023-05-15T08:35:48;14.20;96.60
19232;DHT22;9750;48.730;10.294;2023-05-15T08:38:18;14.20;96.80
19232;DHT22;9750;48.730;10.294;2023-05-15T08:40:46;14.30;96.00
19232;DHT22;9750;48.730;10.294;2023-05-15T08:43:17;14.30;96.50
19232;DHT22;9750;48.730;10.294;2023-05-15T08:45:47;14.50;95.90
19232;DHT22;9750;48.730;10.294;2023-05-15T08:48:17;14.60;95.50
19232;DHT22;9750;48.730;10.294;2023-05-15T08:50:46;14.70;95.80
19232;DHT22;9750;48.730;10.294;2023-05-15T08:53:13;14.80;96.40
19232;DHT22;9750;48.730;10.294;2023-05-15T08:55:43;14.90;95.60
19232;DHT22;9750;48.730;10.294;2023-05-15T08:58:11;15.00;94.40
19232;DHT22;9750;48.730;10.294;2023-05-15T09:00:39;15.20;94.50
19232;DHT22;9750;48.730;10.294;2023-05-15T09:03:13;15.20;94.60
19232;DHT22;9750;48.730;10.294;2023-05-15T09:05:40;15.20;93.30
19232;DHT22;9750;48.730;10.294;2023-05-15T09:08:09;15.20;93.90
19232;DHT22;9750;48.730;10.294;2023-05-15T09:10:36;15.30;93.80
19232;DHT22;9750;48.730;10.294;2023-05-15T09:13:06;15.40;94.10
19232;DHT22;9750;48.730;10.294;2023-05-15T09:15:36;15.50;94.60
19232;DHT22;9750;48.730;10.294;2023-05-15T09:18:05;15.50;93.70
19232;DHT22;9750;48.730;10.294;2023-05-15T09:20:34;15.50;93.50
19232;DHT22;9750;48.730;10.294;2023-05-15T09:23:04;15.60;92.40
19232;DHT22;9750;48.730;10.294;2023-05-15T09:25:35;15.70;92.60
19232;DHT22;9750;48.730;10.294;2023-05-15T09:28:24;16.00;93.00
19232;DHT22;9750;48.730;10.294;2023-05-15T09:30:59;16.10;92.60
19232;DHT22;9750;48.730;10.294;2023-05-15T09:33:28;16.20;93.20
19232;DHT22;9750;48.730;10.294;2023-05-15T09:35:56;16.00;91.90
19232;DHT22;9750;48.730;10.294;2023-05-15T09:38:23;16.00;92.70
19232;DHT22;9750;48.730;10.294;2023-05-15T09:41:00;15.70;92.90
19232;DHT22;9750;48.730;10.294;2023-05-15T09:43:32;15.50;92.20
19232;DHT22;9750;48.730;10.294;2023-05-15T09:45:59;15.40;92.80
19232;DHT22;9750;48.730;10.294;2023-05-15T09:48:27;15.30;92.70
19232;DHT22;9750;48.730;10.294;2023-05-15T09:50:55;15.20;92.90
19232;DHT22;9750;48.730;10.294;2023-05-15T09:53:23;15.20;92.40
19232;DHT22;9750;48.730;10.294;2023-05-15T09:55:51;15.30;92.30
19232;DHT22;9750;48.730;10.294;2023-05-15T09:58:19;15.50;92.00
19232;DHT22;9750;48.730;10.294;2023-05-15T10:00:49;15.70;92.10
19232;DHT22;9750;48.730;10.294;2023-05-15T10:03:17;15.90;91.00
19232;DHT22;9750;48.730;10.294;2023-05-15T10:05:45;16.10;90.80
19232;DHT22;9750;48.730;10.294;2023-05-15T10:08:12;16.40;91.50
19232;DHT22;9750;48.730;10.294;2023-05-15T10:10:41;16.40;90.90
19232;DHT22;9750;48.730;10.294;2023-05-15T10:13:09;16.40;90.00
19232;DHT22;9750;48.730;10.294;2023-05-15T10:15:38;16.40;87.80
19232;DHT22;9750;48.730;10.294;2023-05-15T10:18:07;16.30;90.80
19232;DHT22;9750;48.730;10.294;2023-05-15T10:20:34;16.20;89.60
19232;DHT22;9750;48.730;10.294;2023-05-15T10:23:04;16.00;91.30
19232;DHT22;9750;48.730;10.294;2023-05-15T10:25:37;15.90;91.90
19232;DHT22;9750;48.730;10.294;2023-05-15T10:28:08;15.70;92.40
19232;DHT22;9750;48.730;10.294;2023-05-15T10:30:36;15.60;92.70
19232;DHT22;9750;48.730;10.294;2023-05-15T10:33:04;15.50;92.10
19232;DHT22;9750;48.730;10.294;2023-05-15T10:35:33;15.50;92.20
19232;DHT22;9750;48.730;10.294;2023-05-15T10:38:04;15.50;92.70
19232;DHT22;9750;48.730;10.294;2023-05-15T10:40:32;15.60;93.00
19232;DHT22;9750;48.730;10.294;2023-05-15T10:43:02;15.70;92.90
19232;DHT22;9750;48.730;10.294;2023-05-15T10:45:31;15.80;92.50
19232;DHT22;9750;48.730;10.294;2023-05-15T10:48:00;15.80;92.40
19232;DHT22;9750;48.730;10.294;2023-05-15T10:50:35;15.80;92.30
19232;DHT22;9750;48.730;10.294;2023-05-15T10:53:03;15.70;93.20
19232;DHT22;9750;48.730;10.294;2023-05-15T10:55:31;15.70;93.60
19232;DHT22;9750;48.730;10.294;2023-05-15T10:57:58;15.70;93.50
19232;DHT22;9750;48.730;10.294;2023-05-15T11:00:26;15.70;92.60
19232;DHT22;9750;48.730;10.294;2023-05-15T11:02:56;15.80;92.50
19232;DHT22;9750;48.730;10.294;2023-05-15T11:05:24;15.80;91.40
19232;DHT22;9750;48.730;10.294;2023-05-15T11:08:24;15.90;91.90
19232;DHT22;9750;48.730;10.294;2023-05-15T11:10:54;15.90;92.00
19232;DHT22;9750;48.730;10.294;2023-05-15T11:13:21;16.00;92.50
19232;DHT22;9750;48.730;10.294;2023-05-15T11:15:49;16.00;91.60
19232;DHT22;9750;48.730;10.294;2023-05-15T11:18:16;16.20;90.80
19232;DHT22;9750;48.730;10.294;2023-05-15T11:21:04;16.40;91.40
19232;DHT22;9750;48.730;10.294;2023-05-15T11:23:39;16.70;91.70
19232;DHT22;9750;48.730;10.294;2023-05-15T11:26:06;16.70;90.40
19232;DHT22;9750;48.730;10.294;2023-05-15T11:28:41;16.70;91.10
19232;DHT22;9750;48.730;10.294;2023-05-15T11:31:09;16.70;90.70
19232;DHT22;9750;48.730;10.294;2023-05-15T11:33:38;16.60;90.90
19232;DHT22;9750;48.730;10.294;2023-05-15T11:36:06;16.60;89.40
19232;DHT22;9750;48.730;10.294;2023-05-15T11:38:39;16.60;89.70
19232;DHT22;9750;48.730;10.294;2023-05-15T11:41:17;16.60;90.30
19232;DHT22;9750;48.730;10.294;2023-05-15T11:43:47;16.50;89.30
19232;DHT22;9750;48.730;10.294;2023-05-15T11:46:14;16.50;90.10
19232;DHT22;9750;48.730;10.294;2023-05-15T11:48:43;16.60;87.70
19232;DHT22;9750;48.730;10.294;2023-05-15T11:51:16;16.80;86.80
19232;DHT22;9750;48.730;10.294;2023-05-15T11:53:45;17.00;90.30
19232;DHT22;9750;48.730;10.294;2023-05-15T11:56:16;17.10;83.00
19232;DHT22;9750;48.730;10.294;2023-05-15T11:58:46;17.20;83.70
19232;DHT22;9750;48.730;10.294;2023-05-15T12:01:13;17.20;84.50
19232;DHT22;9750;48.730;10.294;2023-05-15T12:03:42;17.30;85.10
19232;DHT22;9750;48.730;10.294;2023-05-15T12:06:12;17.40;85.00
19232;DHT22;9750;48.730;10.294;2023-05-15T12:08:41;17.40;84.30
19232;DHT22;9750;48.730;10.294;2023-05-15T12:11:11;17.30;83.50
19232;DHT22;9750;48.730;10.294;2023-05-15T12:13:39;17.40;85.40
19232;DHT22;9750;48.730;10.294;2023-05-15T12:16:06;17.50;85.40
19232;DHT22;9750;48.730;10.294;2023-05-15T12:18:33;17.40;83.80
19232;DHT22;9750;48.730;10.294;2023-05-15T12:21:01;17.30;83.00
19232;DHT22;9750;48.730;10.294;2023-05-15T12:23:31;17.20;81.70
19232;DHT22;9750;48.730;10.294;2023-05-15T12:25:59;17.20;83.20
19232;DHT22;9750;48.730;10.294;2023-05-15T12:28:31;17.20;84.20
19232;DHT22;9750;48.730;10.294;2023-05-15T12:30:59;17.20;82.80
19232;DHT22;9750;48.730;10.294;2023-05-15T12:33:26;17.00;81.70
19232;DHT22;9750;48.730;10.294;2023-05-15T12:35:55;16.80;82.70
19232;DHT22;9750;48.730;10.294;2023-05-15T12:38:22;16.50;85.70
19232;DHT22;9750;48.730;10.294;2023-05-15T12:40:51;16.20;89.60
19232;DHT22;9750;48.730;10.294;2023-05-15T12:43:22;16.20;91.00
19232;DHT22;9750;48.730;10.294;2023-05-15T12:45:53;16.10;91.90
19232;DHT22;9750;48.730;10.294;2023-05-15T12:48:21;15.90;92.70
19232;DHT22;9750;48.730;10.294;2023-05-15T12:50:48;15.70;91.60
19232;DHT22;9750;48.730;10.294;2023-05-15T12:53:16;15.60;91.20
19232;DHT22;9750;48.730;10.294;2023-05-15T12:55:44;15.70;90.70
19232;DHT22;9750;48.730;10.294;2023-05-15T12:58:13;15.90;91.20
19232;DHT22;9750;48.730;10.294;2023-05-15T13:00:43;16.10;90.20
19232;DHT22;9750;48.730;10.294;2023-05-15T13:03:14;16.30;92.00
19232;DHT22;9750;48.730;10.294;2023-05-15T13:05:43;16.50;92.70
19232;DHT22;9750;48.730;10.294;2023-05-15T13:08:14;16.50;91.80
19232;DHT22;9750;48.730;10.294;2023-05-15T13:10:42;16.60;91.60
19232;DHT22;9750;48.730;10.294;2023-05-15T13:13:09;16.70;91.70
19232;DHT22;9750;48.730;10.294;2023-05-15T13:15:38;16.70;92.00
19232;DHT22;9750;48.730;10.294;2023-05-15T13:18:06;16.70;92.20
19232;DHT22;9750;48.730;10.294;2023-05-15T13:20:37;16.80;92.90
19232;DHT22;9750;48.730;10.294;2023-05-15T13:23:05;16.70;93.40
19232;DHT22;9750;48.730;10.294;2023-05-15T13:25:33;16.60;91.80
19232;DHT22;9750;48.730;10.294;2023-05-15T13:28:02;16.50;92.00
19232;DHT22;9750;48.730;10.294;2023-05-15T13:30:29;16.50;93.00
19232;DHT22;9750;48.730;10.294;2023-05-15T13:32:58;16.60;92.80
19232;DHT22;9750;48.730;10.294;2023-05-15T13:35:25;16.60;92.60
19232;DHT22;9750;48.730;10.294;2023-05-15T13:37:54;16.70;92.80
19232;DHT22;9750;48.730;10.294;2023-05-15T13:40:22;16.70;93.10
19232;DHT22;9750;48.730;10.294;2023-05-15T13:42:49;16.70;92.90
19232;DHT22;9750;48.730;10.294;2023-05-15T13:45:17;16.80;92.50
19232;DHT22;9750;48.730;10.294;2023-05-15T13:47:44;16.80;92.60
19232;DHT22;9750;48.730;10.294;2023-05-15T13:50:13;16.90;92.50
19232;DHT22;9750;48.730;10.294;2023-05-15T13:52:41;17.00;92.20
19232;DHT22;9750;48.730;10.294;2023-05-15T13:55:10;17.00;92.70
19232;DHT22;9750;48.730;10.294;2023-05-15T13:57:38;17.20;91.10
19232;DHT22;9750;48.730;10.294;2023-05-15T14:00:07;17.20;91.40
19232;DHT22;9750;48.730;10.294;2023-05-15T14:02:35;17.30;92.30
19232;DHT22;9750;48.730;10.294;2023-05-15T14:05:03;17.40;92.30
19232;DHT22;9750;48.730;10.294;2023-05-15T14:07:30;17.40;91.10
19232;DHT22;9750;48.730;10.294;2023-05-15T14:09:58;17.40;90.50
19232;DHT22;9750;48.730;10.294;2023-05-15T14:12:26;17.50;90.30
19232;DHT22;9750;48.730;10.294;2023-05-15T14:14:54;17.60;90.40
19232;DHT22;9750;48.730;10.294;2023-05-15T14:17:21;17.80;91.20
19232;DHT22;9750;48.730;10.294;2023-05-15T14:19:48;17.90;86.40
19232;DHT22;9750;48.730;10.294;2023-05-15T14:22:16;17.90;81.80
19232;DHT22;9750;48.730;10.294;2023-05-15T14:24:43;17.90;86.00
19232;DHT22;9750;48.730;10.294;2023-05-15T14:27:10;17.80;83.20
19232;DHT22;9750;48.730;10.294;2023-05-15T14:29:39;17.90;85.00
19232;DHT22;9750;48.730;10.294;2023-05-15T14:32:07;18.00;85.90
19232;DHT22;9750;48.730;10.294;2023-05-15T14:34:34;18.00;85.10
19232;DHT22;9750;48.730;10.294;2023-05-15T14:37:01;18.00;84.50
19232;DHT22;9750;48.730;10.294;2023-05-15T14:39:28;17.90;86.20
19232;DHT22;9750;48.730;10.294;2023-05-15T14:41:56;18.00;87.20
19232;DHT22;9750;48.730;10.294;2023-05-15T14:44:23;18.10;88.10
19232;DHT22;9750;48.730;10.294;2023-05-15T14:47:06;18.00;85.90
19232;DHT22;9750;48.730;10.294;2023-05-15T14:49:33;17.80;84.30
19232;DHT22;9750;48.730;10.294;2023-05-15T14:52:01;17.60;85.50
19232;DHT22;9750;48.730;10.294;2023-05-15T14:54:28;17.50;86.00
19232;DHT22;9750;48.730;10.294;2023-05-15T14:56:55;17.40;87.00
19232;DHT22;9750;48.730;10.294;2023-05-15T14:59:23;17.30;85.10
19232;DHT22;9750;48.730;10.294;2023-05-15T15:01:50;17.00;85.50
19232;DHT22;9750;48.730;10.294;2023-05-15T15:04:19;16.90;87.70
19232;DHT22;9750;48.730;10.294;2023-05-15T15:06:46;16.90;87.00
19232;DHT22;9750;48.730;10.294;2023-05-15T15:09:13;16.90;86.30
19232;DHT22;9750;48.730;10.294;2023-05-15T15:11:40;17.00;86.60
19232;DHT22;9750;48.730;10.294;2023-05-15T15:14:08;17.10;84.90
19232;DHT22;9750;48.730;10.294;2023-05-15T15:16:35;17.20;85.10
19232;DHT22;9750;48.730;10.294;2023-05-15T15:19:02;17.40;84.00
19232;DHT22;9750;48.730;10.294;2023-05-15T15:21:31;17.40;83.60
19232;DHT22;9750;48.730;10.294;2023-05-15T15:23:59;17.40;83.20
19232;DHT22;9750;48.730;10.294;2023-05-15T15:26:26;17.40;83.20
19232;DHT22;9750;48.730;10.294;2023-05-15T15:28:53;17.40;82.60
19232;DHT22;9750;48.730;10.294;2023-05-15T15:31:25;17.40;80.90
19232;DHT22;9750;48.730;10.294;2023-05-15T15:33:53;17.50;83.00
19232;DHT22;9750;48.730;10.294;2023-05-15T15:36:20;17.60;83.00
19232;DHT22;9750;48.730;10.294;2023-05-15T15:38:49;17.70;81.90
19232;DHT22;9750;48.730;10.294;2023-05-15T15:41:16;17.70;80.20
19232;DHT22;9750;48.730;10.294;2023-05-15T15:43:45;17.80;80.80
19232;DHT22;9750;48.730;10.294;2023-05-15T15:46:13;17.80;78.00
19232;DHT22;9750;48.730;10.294;2023-05-15T15:48:40;17.80;81.30
19232;DHT22;9750;48.730;10.294;2023-05-15T15:51:07;17.90;81.00
19232;DHT22;9750;48.730;10.294;2023-05-15T15:53:34;17.90;79.30
19232;DHT22;9750;48.730;10.294;2023-05-15T15:56:03;17.90;79.90
19232;DHT22;9750;48.730;10.294;2023-05-15T15:58:30;17.90;79.00
19232;DHT22;9750;48.730;10.294;2023-05-15T16:00:58;17.90;77.60
19232;DHT22;9750;48.730;10.294;2023-05-15T16:03:26;17.90;79.00
19232;DHT22;9750;48.730;10.294;2023-05-15T16:05:53;17.90;80.00
19232;DHT22;9750;48.730;10.294;2023-05-15T16:08:20;17.90;80.70
19232;DHT22;9750;48.730;10.294;2023-05-15T16:10:47;17.90;78.90
19232;DHT22;9750;48.730;10.294;2023-05-15T16:13:16;18.00;79.80
19232;DHT22;9750;48.730;10.294;2023-05-15T16:15:43;18.10;79.30
19232;DHT22;9750;48.730;10.294;2023-05-15T16:18:10;18.10;78.20
19232;DHT22;9750;48.730;10.294;2023-05-15T16:20:38;18.20;79.20
19232;DHT22;9750;48.730;10.294;2023-05-15T16:23:05;18.30;78.60
19232;DHT22;9750;48.730;10.294;2023-05-15T16:25:34;18.40;80.20
19232;DHT22;9750;48.730;10.294;2023-05-15T16:28:01;18.50;78.40
19232;DHT22;9750;48.730;10.294;2023-05-15T16:30:30;18.40;80.00
19232;DHT22;9750;48.730;10.294;2023-05-15T16:32:57;18.30;79.70
19232;DHT22;9750;48.730;10.294;2023-05-15T16:35:24;18.30;81.70
19232;DHT22;9750;48.730;10.294;2023-05-15T16:41:13;18.30;84.00
19232;DHT22;9750;48.730;10.294;2023-05-15T16:43:41;18.30;83.40
19232;DHT22;9750;48.730;10.294;2023-05-15T16:46:10;18.30;83.80
19232;DHT22;9750;48.730;10.294;2023-05-15T16:48:37;18.30;86.30
19232;DHT22;9750;48.730;10.294;2023-05-15T16:51:05;18.30;86.60
19232;DHT22;9750;48.730;10.294;2023-05-15T16:53:32;18.30;85.90
19232;DHT22;9750;48.730;10.294;2023-05-15T16:55:59;18.30;86.10
19232;DHT22;9750;48.730;10.294;2023-05-15T16:58:27;18.50;85.60
19232;DHT22;9750;48.730;10.294;2023-05-15T17:00:54;18.70;85.30
19232;DHT22;9750;48.730;10.294;2023-05-15T17:03:23;18.80;84.70
19232;DHT22;9750;48.730;10.294;2023-05-15T17:05:50;18.70;83.80
19232;DHT22;9750;48.730;10.294;2023-05-15T17:11:39;18.30;85.00
19232;DHT22;9750;48.730;10.294;2023-05-15T17:14:07;18.20;85.10
19232;DHT22;9750;48.730;10.294;2023-05-15T17:16:34;18.10;85.70
19232;DHT22;9750;48.730;10.294;2023-05-15T17:19:02;18.00;86.10
19232;DHT22;9750;48.730;10.294;2023-05-15T17:21:30;17.90;85.10
19232;DHT22;9750;48.730;10.294;2023-05-15T17:23:58;17.90;86.00
19232;DHT22;9750;48.730;10.294;2023-05-15T17:26:25;17.80;86.20
19232;DHT22;9750;48.730;10.294;2023-05-15T17:28:53;17.70;86.50
19232;DHT22;9750;48.730;10.294;2023-05-15T17:31:20;17.70;86.50
19232;DHT22;9750;48.730;10.294;2023-05-15T17:33:47;17.70;86.60
19232;DHT22;9750;48.730;10.294;2023-05-15T17:36:16;17.60;86.80
19232;DHT22;9750;48.730;10.294;2023-05-15T17:38:43;17.60;86.70
19232;DHT22;9750;48.730;10.294;2023-05-15T17:41:10;17.60;85.60
19232;DHT22;9750;48.730;10.294;2023-05-15T17:43:38;17.60;85.80
19232;DHT22;9750;48.730;10.294;2023-05-15T17:46:05;17.60;85.50
19232;DHT22;9750;48.730;10.294;2023-05-15T17:48:32;17.50;86.50
19232;DHT22;9750;48.730;10.294;2023-05-15T17:51:00;17.40;84.60
19232;DHT22;9750;48.730;10.294;2023-05-15T17:53:29;17.30;86.20
19232;DHT22;9750;48.730;10.294;2023-05-15T17:55:56;17.10;87.40
19232;DHT22;9750;48.730;10.294;2023-05-15T17:58:23;17.00;87.70
19232;DHT22;9750;48.730;10.294;2023-05-15T18:00:51;16.90;88.80
19232;DHT22;9750;48.730;10.294;2023-05-15T18:03:18;16.80;88.40
19232;DHT22;9750;48.730;10.294;2023-05-15T18:05:45;16.70;88.10
19232;DHT22;9750;48.730;10.294;2023-05-15T18:08:13;16.70;88.40
19232;DHT22;9750;48.730;10.294;2023-05-15T18:10:42;16.60;89.30
19232;DHT22;9750;48.730;10.294;2023-05-15T18:13:09;16.40;90.00
19232;DHT22;9750;48.730;10.294;2023-05-15T18:15:37;16.40;90.40
19232;DHT22;9750;48.730;10.294;2023-05-15T18:18:04;16.30;90.60
19232;DHT22;9750;48.730;10.294;2023-05-15T18:20:32;16.20;90.80
19232;DHT22;9750;48.730;10.294;2023-05-15T18:22:59;16.10;90.70
19232;DHT22;9750;48.730;10.294;2023-05-15T18:25:26;16.10;90.80
19232;DHT22;9750;48.730;10.294;2023-05-15T18:27:55;16.00;89.90
19232;DHT22;9750;48.730;10.294;2023-05-15T18:30:22;16.00;90.60
19232;DHT22;9750;48.730;10.294;2023-05-15T18:32:50;15.90;90.60
19232;DHT22;9750;48.730;10.294;2023-05-15T18:35:17;15.80;90.80
19232;DHT22;9750;48.730;10.294;2023-05-15T18:37:44;15.80;90.90
19232;DHT22;9750;48.730;10.294;2023-05-15T18:40:12;15.80;90.70
19232;DHT22;9750;48.730;10.294;2023-05-15T18:42:39;15.70;91.10
19232;DHT22;9750;48.730;10.294;2023-05-15T18:45:09;15.60;90.70
19232;DHT22;9750;48.730;10.294;2023-05-15T18:47:37;15.60;91.30
19232;DHT22;9750;48.730;10.294;2023-05-15T18:50:06;15.50;91.50
19232;DHT22;9750;48.730;10.294;2023-05-15T18:52:33;15.40;91.30
19232;DHT22;9750;48.730;10.294;2023-05-15T18:55:00;15.30;91.60
19232;DHT22;9750;48.730;10.294;2023-05-15T19:01:01;15.20;91.00
19232;DHT22;9750;48.730;10.294;2023-05-15T19:03:28;15.00;91.20
19232;DHT22;9750;48.730;10.294;2023-05-15T19:05:56;14.90;91.50
19232;DHT22;9750;48.730;10.294;2023-05-15T19:11:46;14.70;91.50
19232;DHT22;9750;48.730;10.294;2023-05-15T19:14:14;14.70;91.40
19232;DHT22;9750;48.730;10.294;2023-05-15T19:16:44;14.60;91.50
19232;DHT22;9750;48.730;10.294;2023-05-15T19:19:12;14.50;91.60
19232;DHT22;9750;48.730;10.294;2023-05-15T19:21:39;14.40;91.60
19232;DHT22;9750;48.730;10.294;2023-05-15T19:24:07;14.40;91.50
19232;DHT22;9750;48.730;10.294;2023-05-15T19:26:34;14.30;91.50
19232;DHT22;9750;48.730;10.294;2023-05-15T19:29:02;14.30;91.50
19232;DHT22;9750;48.730;10.294;2023-05-15T19:31:29;14.30;91.60
19232;DHT22;9750;48.730;10.294;2023-05-15T19:33:58;14.30;91.50
19232;DHT22;9750;48.730;10.294;2023-05-15T19:36:25;14.20;91.60
19232;DHT22;9750;48.730;10.294;2023-05-15T19:38:52;14.20;92.50
19232;DHT22;9750;48.730;10.294;2023-05-15T19:41:20;14.20;92.00
19232;DHT22;9750;48.730;10.294;2023-05-15T19:43:48;14.10;92.20
19232;DHT22;9750;48.730;10.294;2023-05-15T19:46:15;14.10;92.50
19232;DHT22;9750;48.730;10.294;2023-05-15T19:48:42;14.10;92.50
19232;DHT22;9750;48.730;10.294;2023-05-15T19:51:11;14.10;92.50
19232;DHT22;9750;48.730;10.294;2023-05-15T19:53:38;14.00;92.50
19232;DHT22;9750;48.730;10.294;2023-05-15T19:56:06;14.00;92.60
19232;DHT22;9750;48.730;10.294;2023-05-15T19:58:33;13.90;92.40